sensor_id;sensor_type;location;lat;lon;timestamp;temperature;humidity
4828;DHT22;2428;48.732;9.148;2022-12-11T00:01:46;-1.00;99.90
4828;DHT22;2428;48.732;9.148;2022-12-11T00:04:12;-1.00;99.90
4828;DHT22;2428;48.732;9.148;2022-12-11T00:06:37;-1.00;99.90
4828;DHT22;2428;48.732;9.148;2022-12-11T00:09:03;-1.00;99.90
4828;DHT22;2428;48.732;9.148;2022-12-11T00:11:28;-1.00;99.90
4828;DHT22;2428;48.732;9.148;2022-12-11T00:13:54;-1.00;99.90
4828;DHT22;2428;48.732;9.148;2022-12-11T00:16:20;-1.00;99.90
4828;DHT22;2428;48.732;9.148;2022-12-11T00:18:45;-1.00;99.90
4828;DHT22;2428;48.732;9.148;2022-12-11T00:21:14;-1.10;99.90
4828;DHT22;2428;48.732;9.148;2022-12-11T00:23:40;-1.10;99.90
4828;DHT22;2428;48.732;9.148;2022-12-11T00:26:09;-1.10;99.90
4828;DHT22;2428;48.732;9.148;2022-12-11T00:28:36;-1.10;99.90
4828;DHT22;2428;48.732;9.148;2022-12-11T00:31:06;-1.10;99.90
4828;DHT22;2428;48.732;9.148;2022-12-11T00:33:32;-1.20;99.90
4828;DHT22;2428;48.732;9.148;2022-12-11T00:35:58;-1.10;99.90
4828;DHT22;2428;48.732;9.148;2022-12-11T00:38:23;-1.20;99.90
4828;DHT22;2428;48.732;9.148;2022-12-11T00:40:49;-1.20;99.90
4828;DHT22;2428;48.732;9.148;2022-12-11T00:43:15;-1.20;99.90
4828;DHT22;2428;48.732;9.148;2022-12-11T00:45:42;-1.20;99.90
4828;DHT22;2428;48.732;9.148;2022-12-11T00:48:09;-1.20;99.90
4828;DHT22;2428;48.732;9.148;2022-12-11T00:50:35;-1.20;99.90
4828;DHT22;2428;48.732;9.148;2022-12-11T00:53:02;-1.10;99.90
4828;DHT22;2428;48.732;9.148;2022-12-11T00:55:28;-1.10;99.90
4828;DHT22;2428;48.732;9.148;2022-12-11T00:57:55;-1.00;99.90
4828;DHT22;2428;48.732;9.148;2022-12-11T01:00:21;-1.00;99.90
4828;DHT22;2428;48.732;9.148;2022-12-11T01:02:48;-1.00;99.90
4828;DHT22;2428;48.732;9.148;2022-12-11T01:05:14;-1.00;99.90
4828;DHT22;2428;48.732;9.148;2022-12-11T01:07:40;-0.90;99.90
4828;DHT22;2428;48.732;9.148;2022-12-11T01:10:05;-0.90;99.90
4828;DHT22;2428;48.732;9.148;2022-12-11T01:15:16;-0.90;99.90
4828;DHT22;2428;48.732;9.148;2022-12-11T01:17:41;-0.80;99.90
4828;DHT22;2428;48.732;9.148;2022-12-11T01:20:07;-0.80;99.90
4828;DHT22;2428;48.732;9.148;2022-12-11T01:22:33;-0.70;99.90
4828;DHT22;2428;48.732;9.148;2022-12-11T01:24:58;-0.70;99.90
4828;DHT22;2428;48.732;9.148;2022-12-11T01:27:24;-0.70;99.90
4828;DHT22;2428;48.732;9.148;2022-12-11T01:29:50;-0.60;99.90
4828;DHT22;2428;48.732;9.148;2022-12-11T01:32:15;-0.60;99.90
4828;DHT22;2428;48.732;9.148;2022-12-11T01:34:41;-0.60;99.90
4828;DHT22;2428;48.732;9.148;2022-12-11T01:37:06;-0.50;99.90
4828;DHT22;2428;48.732;9.148;2022-12-11T01:39:32;-0.50;99.90
4828;DHT22;2428;48.732;9.148;2022-12-11T01:41:59;-0.50;99.90
4828;DHT22;2428;48.732;9.148;2022-12-11T01:46:51;-0.40;99.90
4828;DHT22;2428;48.732;9.148;2022-12-11T01:49:18;-0.40;99.90
4828;DHT22;2428;48.732;9.148;2022-12-11T01:54:14;-0.50;99.90
4828;DHT22;2428;48.732;9.148;2022-12-11T01:56:42;-0.50;99.90
4828;DHT22;2428;48.732;9.148;2022-12-11T01:59:09;-0.60;99.90
4828;DHT22;2428;48.732;9.148;2022-12-11T02:04:39;-0.60;99.90
4828;DHT22;2428;48.732;9.148;2022-12-11T02:07:06;-0.70;99.90
4828;DHT22;2428;48.732;9.148;2022-12-11T02:09:34;-0.60;99.90
4828;DHT22;2428;48.732;9.148;2022-12-11T02:17:48;-0.60;99.90
4828;DHT22;2428;48.732;9.148;2022-12-11T02:20:52;-0.60;99.90
4828;DHT22;2428;48.732;9.148;2022-12-11T02:28:41;-0.40;99.90
4828;DHT22;2428;48.732;9.148;2022-12-11T02:31:26;-0.40;99.90
4828;DHT22;2428;48.732;9.148;2022-12-11T02:34:09;-0.30;99.90
4828;DHT22;2428;48.732;9.148;2022-12-11T02:36:40;-0.30;99.90
4828;DHT22;2428;48.732;9.148;2022-12-11T02:39:09;-0.20;99.90
4828;DHT22;2428;48.732;9.148;2022-12-11T02:41:42;-0.20;99.90
4828;DHT22;2428;48.732;9.148;2022-12-11T02:44:10;-0.20;99.90
4828;DHT22;2428;48.732;9.148;2022-12-11T02:46:39;-0.20;99.90
4828;DHT22;2428;48.732;9.148;2022-12-11T02:49:06;-0.20;99.90
4828;DHT22;2428;48.732;9.148;2022-12-11T02:51:37;-0.20;99.90
4828;DHT22;2428;48.732;9.148;2022-12-11T02:54:07;-0.20;99.90
4828;DHT22;2428;48.732;9.148;2022-12-11T02:56:51;-0.20;99.90
4828;DHT22;2428;48.732;9.148;2022-12-11T02:59:28;-0.20;99.90
4828;DHT22;2428;48.732;9.148;2022-12-11T03:01:55;-0.10;99.90
4828;DHT22;2428;48.732;9.148;2022-12-11T03:04:21;-0.10;99.90
4828;DHT22;2428;48.732;9.148;2022-12-11T03:06:52;-0.20;99.90
4828;DHT22;2428;48.732;9.148;2022-12-11T03:09:19;-0.20;99.90
4828;DHT22;2428;48.732;9.148;2022-12-11T03:11:44;-0.20;99.90
4828;DHT22;2428;48.732;9.148;2022-12-11T03:14:10;-0.20;99.90
4828;DHT22;2428;48.732;9.148;2022-12-11T03:19:48;-0.20;99.90
4828;DHT22;2428;48.732;9.148;2022-12-11T03:22:42;-0.20;99.90
4828;DHT22;2428;48.732;9.148;2022-12-11T03:25:14;-0.20;99.90
4828;DHT22;2428;48.732;9.148;2022-12-11T03:27:54;-0.20;99.90
4828;DHT22;2428;48.732;9.148;2022-12-11T03:30:22;-0.20;99.90
4828;DHT22;2428;48.732;9.148;2022-12-11T03:32:50;-0.20;99.90
4828;DHT22;2428;48.732;9.148;2022-12-11T03:35:41;-0.30;99.90
4828;DHT22;2428;48.732;9.148;2022-12-11T03:38:12;-0.20;99.90
4828;DHT22;2428;48.732;9.148;2022-12-11T03:40:39;-0.30;99.90
4828;DHT22;2428;48.732;9.148;2022-12-11T03:43:06;-0.30;99.90
4828;DHT22;2428;48.732;9.148;2022-12-11T03:45:33;-0.30;99.90
4828;DHT22;2428;48.732;9.148;2022-12-11T03:48:00;-0.30;99.90
4828;DHT22;2428;48.732;9.148;2022-12-11T03:50:29;-0.30;99.90
4828;DHT22;2428;48.732;9.148;2022-12-11T03:52:57;-0.30;99.90
4828;DHT22;2428;48.732;9.148;2022-12-11T03:55:25;-0.40;99.90
4828;DHT22;2428;48.732;9.148;2022-12-11T03:57:52;-0.40;99.90
4828;DHT22;2428;48.732;9.148;2022-12-11T04:00:19;-0.40;99.90
4828;DHT22;2428;48.732;9.148;2022-12-11T04:02:46;-0.40;99.90
4828;DHT22;2428;48.732;9.148;2022-12-11T04:05:34;-0.40;99.90
4828;DHT22;2428;48.732;9.148;2022-12-11T04:07:59;-0.40;99.90
4828;DHT22;2428;48.732;9.148;2022-12-11T04:10:25;-0.40;99.90
4828;DHT22;2428;48.732;9.148;2022-12-11T04:12:51;-0.40;99.90
4828;DHT22;2428;48.732;9.148;2022-12-11T04:15:16;-0.50;99.90
4828;DHT22;2428;48.732;9.148;2022-12-11T04:17:42;-0.50;99.90
4828;DHT22;2428;48.732;9.148;2022-12-11T04:20:26;-0.50;99.90
4828;DHT22;2428;48.732;9.148;2022-12-11T04:23:15;-0.50;99.90
4828;DHT22;2428;48.732;9.148;2022-12-11T04:28:32;-0.60;99.90
4828;DHT22;2428;48.732;9.148;2022-12-11T04:30:58;-0.60;99.90
4828;DHT22;2428;48.732;9.148;2022-12-11T04:33:24;-0.70;99.90
4828;DHT22;2428;48.732;9.148;2022-12-11T04:35:49;-0.60;99.90
4828;DHT22;2428;48.732;9.148;2022-12-11T04:38:15;-0.70;99.90
4828;DHT22;2428;48.732;9.148;2022-12-11T04:40:40;-0.70;99.90
4828;DHT22;2428;48.732;9.148;2022-12-11T04:43:06;-0.80;99.90
4828;DHT22;2428;48.732;9.148;2022-12-11T04:45:32;-0.80;99.90
4828;DHT22;2428;48.732;9.148;2022-12-11T04:47:57;-1.00;99.90
4828;DHT22;2428;48.732;9.148;2022-12-11T04:50:24;-1.00;99.90
4828;DHT22;2428;48.732;9.148;2022-12-11T04:52:53;-1.00;99.90
4828;DHT22;2428;48.732;9.148;2022-12-11T04:55:18;-1.00;99.90
4828;DHT22;2428;48.732;9.148;2022-12-11T04:57:44;-1.10;99.90
4828;DHT22;2428;48.732;9.148;2022-12-11T05:00:10;-1.10;99.90
4828;DHT22;2428;48.732;9.148;2022-12-11T05:02:37;-1.10;99.90
4828;DHT22;2428;48.732;9.148;2022-12-11T05:05:05;-1.10;99.90
4828;DHT22;2428;48.732;9.148;2022-12-11T05:07:31;-1.00;99.90
4828;DHT22;2428;48.732;9.148;2022-12-11T05:09:57;-0.90;99.90
4828;DHT22;2428;48.732;9.148;2022-12-11T05:12:22;-0.90;99.90
4828;DHT22;2428;48.732;9.148;2022-12-11T05:14:51;-0.80;99.90
4828;DHT22;2428;48.732;9.148;2022-12-11T05:17:18;-0.80;99.90
4828;DHT22;2428;48.732;9.148;2022-12-11T05:19:45;-0.80;99.90
4828;DHT22;2428;48.732;9.148;2022-12-11T05:22:11;-0.90;99.90
4828;DHT22;2428;48.732;9.148;2022-12-11T05:24:36;-1.10;99.90
4828;DHT22;2428;48.732;9.148;2022-12-11T05:27:02;-1.10;99.90
4828;DHT22;2428;48.732;9.148;2022-12-11T05:29:27;-1.10;99.90
4828;DHT22;2428;48.732;9.148;2022-12-11T05:31:53;-1.10;99.90
4828;DHT22;2428;48.732;9.148;2022-12-11T05:34:18;-1.10;99.90
4828;DHT22;2428;48.732;9.148;2022-12-11T05:36:44;-1.00;99.90
4828;DHT22;2428;48.732;9.148;2022-12-11T05:39:09;-1.00;99.90
4828;DHT22;2428;48.732;9.148;2022-12-11T05:41:35;-1.00;99.90
4828;DHT22;2428;48.732;9.148;2022-12-11T05:44:01;-0.90;99.90
4828;DHT22;2428;48.732;9.148;2022-12-11T05:46:28;-0.90;99.90
4828;DHT22;2428;48.732;9.148;2022-12-11T05:48:57;-1.00;99.90
4828;DHT22;2428;48.732;9.148;2022-12-11T05:51:23;-1.00;99.90
4828;DHT22;2428;48.732;9.148;2022-12-11T05:53:50;-1.00;99.90
4828;DHT22;2428;48.732;9.148;2022-12-11T05:56:18;-1.00;99.90
4828;DHT22;2428;48.732;9.148;2022-12-11T05:58:45;-1.00;99.90
4828;DHT22;2428;48.732;9.148;2022-12-11T06:01:15;-1.10;99.90
4828;DHT22;2428;48.732;9.148;2022-12-11T06:03:42;-1.20;99.90
4828;DHT22;2428;48.732;9.148;2022-12-11T06:06:09;-1.20;99.90
4828;DHT22;2428;48.732;9.148;2022-12-11T06:08:34;-1.20;99.90
4828;DHT22;2428;48.732;9.148;2022-12-11T06:11:01;-1.30;99.90
4828;DHT22;2428;48.732;9.148;2022-12-11T06:13:27;-1.30;99.90
4828;DHT22;2428;48.732;9.148;2022-12-11T06:15:52;-1.20;99.90
4828;DHT22;2428;48.732;9.148;2022-12-11T06:18:18;-1.30;99.90
4828;DHT22;2428;48.732;9.148;2022-12-11T06:20:44;-1.30;99.90
4828;DHT22;2428;48.732;9.148;2022-12-11T06:23:09;-1.30;99.90
4828;DHT22;2428;48.732;9.148;2022-12-11T06:25:38;-1.30;99.90
4828;DHT22;2428;48.732;9.148;2022-12-11T06:28:03;-1.20;99.90
4828;DHT22;2428;48.732;9.148;2022-12-11T06:30:29;-1.20;99.90
4828;DHT22;2428;48.732;9.148;2022-12-11T06:32:54;-1.20;99.90
4828;DHT22;2428;48.732;9.148;2022-12-11T06:35:22;-1.20;99.90
4828;DHT22;2428;48.732;9.148;2022-12-11T06:37:47;-1.20;99.90
4828;DHT22;2428;48.732;9.148;2022-12-11T06:40:13;-1.20;99.90
4828;DHT22;2428;48.732;9.148;2022-12-11T06:42:39;-1.30;99.90
4828;DHT22;2428;48.732;9.148;2022-12-11T06:45:05;-1.30;99.90
4828;DHT22;2428;48.732;9.148;2022-12-11T06:47:30;-1.30;99.90
4828;DHT22;2428;48.732;9.148;2022-12-11T06:49:57;-1.30;99.90
4828;DHT22;2428;48.732;9.148;2022-12-11T06:52:24;-1.30;99.90
4828;DHT22;2428;48.732;9.148;2022-12-11T06:54:51;-1.30;99.90
4828;DHT22;2428;48.732;9.148;2022-12-11T06:57:17;-1.30;99.90
4828;DHT22;2428;48.732;9.148;2022-12-11T06:59:42;-1.40;99.90
4828;DHT22;2428;48.732;9.148;2022-12-11T07:02:16;-1.40;99.90
4828;DHT22;2428;48.732;9.148;2022-12-11T07:04:42;-1.50;99.90
4828;DHT22;2428;48.732;9.148;2022-12-11T07:07:08;-1.40;99.90
4828;DHT22;2428;48.732;9.148;2022-12-11T07:09:35;-1.40;99.90
4828;DHT22;2428;48.732;9.148;2022-12-11T07:12:01;-1.40;99.90
4828;DHT22;2428;48.732;9.148;2022-12-11T07:14:28;-1.40;99.90
4828;DHT22;2428;48.732;9.148;2022-12-11T07:16:55;-1.40;99.90
4828;DHT22;2428;48.732;9.148;2022-12-11T07:19:21;-1.40;99.90
4828;DHT22;2428;48.732;9.148;2022-12-11T07:21:46;-1.40;99.90
4828;DHT22;2428;48.732;9.148;2022-12-11T07:24:12;-1.40;99.90
4828;DHT22;2428;48.732;9.148;2022-12-11T07:26:38;-1.40;99.90
4828;DHT22;2428;48.732;9.148;2022-12-11T07:29:03;-1.50;99.90
4828;DHT22;2428;48.732;9.148;2022-12-11T07:31:29;-1.60;99.90
4828;DHT22;2428;48.732;9.148;2022-12-11T07:34:05;-1.50;99.90
4828;DHT22;2428;48.732;9.148;2022-12-11T07:36:32;-1.50;99.90
4828;DHT22;2428;48.732;9.148;2022-12-11T07:38:59;-1.40;99.90
4828;DHT22;2428;48.732;9.148;2022-12-11T07:41:24;-1.50;99.90
4828;DHT22;2428;48.732;9.148;2022-12-11T07:43:52;-1.50;99.90
4828;DHT22;2428;48.732;9.148;2022-12-11T07:46:23;-1.40;99.90
4828;DHT22;2428;48.732;9.148;2022-12-11T07:48:48;-1.40;99.90
4828;DHT22;2428;48.732;9.148;2022-12-11T07:51:15;-1.40;99.90
4828;DHT22;2428;48.732;9.148;2022-12-11T07:53:46;-1.40;99.90
4828;DHT22;2428;48.732;9.148;2022-12-11T07:56:12;-1.30;99.90
4828;DHT22;2428;48.732;9.148;2022-12-11T07:58:38;-1.30;99.90
4828;DHT22;2428;48.732;9.148;2022-12-11T08:01:21;-1.10;99.90
4828;DHT22;2428;48.732;9.148;2022-12-11T08:03:47;-1.10;99.90
4828;DHT22;2428;48.732;9.148;2022-12-11T08:06:13;-1.00;99.90
4828;DHT22;2428;48.732;9.148;2022-12-11T08:08:39;-0.80;99.90
4828;DHT22;2428;48.732;9.148;2022-12-11T08:11:08;-0.70;99.90
4828;DHT22;2428;48.732;9.148;2022-12-11T08:13:34;-0.60;99.90
4828;DHT22;2428;48.732;9.148;2022-12-11T08:16:08;-0.60;99.90
4828;DHT22;2428;48.732;9.148;2022-12-11T08:18:34;-0.50;99.90
4828;DHT22;2428;48.732;9.148;2022-12-11T08:21:05;-0.30;99.90
4828;DHT22;2428;48.732;9.148;2022-12-11T08:23:31;-0.30;99.90
4828;DHT22;2428;48.732;9.148;2022-12-11T08:25:56;-0.20;99.90
4828;DHT22;2428;48.732;9.148;2022-12-11T08:28:22;-0.10;99.90
4828;DHT22;2428;48.732;9.148;2022-12-11T08:30:47;0.00;99.90
4828;DHT22;2428;48.732;9.148;2022-12-11T08:33:13;0.20;99.90
4828;DHT22;2428;48.732;9.148;2022-12-11T08:35:39;0.30;99.90
4828;DHT22;2428;48.732;9.148;2022-12-11T08:38:05;0.20;99.90
4828;DHT22;2428;48.732;9.148;2022-12-11T08:40:30;0.30;99.90
4828;DHT22;2428;48.732;9.148;2022-12-11T08:42:56;0.30;99.90
4828;DHT22;2428;48.732;9.148;2022-12-11T08:45:21;0.30;99.90
4828;DHT22;2428;48.732;9.148;2022-12-11T08:47:47;0.30;99.90
4828;DHT22;2428;48.732;9.148;2022-12-11T08:50:13;0.20;99.90
4828;DHT22;2428;48.732;9.148;2022-12-11T08:52:38;0.20;99.90
4828;DHT22;2428;48.732;9.148;2022-12-11T08:55:04;0.50;99.90
4828;DHT22;2428;48.732;9.148;2022-12-11T08:57:30;0.60;99.90
4828;DHT22;2428;48.732;9.148;2022-12-11T08:59:55;0.50;99.90
4828;DHT22;2428;48.732;9.148;2022-12-11T09:02:21;0.40;99.90
4828;DHT22;2428;48.732;9.148;2022-12-11T09:04:46;0.40;99.90
4828;DHT22;2428;48.732;9.148;2022-12-11T09:07:12;0.40;99.90
4828;DHT22;2428;48.732;9.148;2022-12-11T09:09:38;0.30;99.90
4828;DHT22;2428;48.732;9.148;2022-12-11T09:12:04;0.30;99.90
4828;DHT22;2428;48.732;9.148;2022-12-11T09:14:30;0.40;99.90
4828;DHT22;2428;48.732;9.148;2022-12-11T09:16:56;0.30;99.90
4828;DHT22;2428;48.732;9.148;2022-12-11T09:19:21;0.30;99.90
4828;DHT22;2428;48.732;9.148;2022-12-11T09:21:47;0.30;99.90
4828;DHT22;2428;48.732;9.148;2022-12-11T09:24:13;0.20;99.90
4828;DHT22;2428;48.732;9.148;2022-12-11T09:26:39;0.10;99.90
4828;DHT22;2428;48.732;9.148;2022-12-11T09:29:05;0.00;99.90
4828;DHT22;2428;48.732;9.148;2022-12-11T09:31:34;0.10;99.90
4828;DHT22;2428;48.732;9.148;2022-12-11T09:34:02;0.10;99.90
4828;DHT22;2428;48.732;9.148;2022-12-11T09:36:28;0.20;99.90
4828;DHT22;2428;48.732;9.148;2022-12-11T09:38:54;0.20;99.90
4828;DHT22;2428;48.732;9.148;2022-12-11T09:46:36;0.50;99.90
4828;DHT22;2428;48.732;9.148;2022-12-11T09:49:04;0.50;99.90
4828;DHT22;2428;48.732;9.148;2022-12-11T09:51:40;0.50;99.90
4828;DHT22;2428;48.732;9.148;2022-12-11T09:54:11;0.50;99.90
4828;DHT22;2428;48.732;9.148;2022-12-11T10:07:10;0.50;99.90
4828;DHT22;2428;48.732;9.148;2022-12-11T10:12:51;0.60;99.90
4828;DHT22;2428;48.732;9.148;2022-12-11T10:15:58;0.80;99.90
4828;DHT22;2428;48.732;9.148;2022-12-11T10:18:25;0.90;99.90
4828;DHT22;2428;48.732;9.148;2022-12-11T10:20:53;0.90;99.90
4828;DHT22;2428;48.732;9.148;2022-12-11T10:23:26;0.70;99.90
4828;DHT22;2428;48.732;9.148;2022-12-11T10:26:20;0.60;99.90
4828;DHT22;2428;48.732;9.148;2022-12-11T10:28:46;0.60;99.90
4828;DHT22;2428;48.732;9.148;2022-12-11T10:31:18;0.70;99.90
4828;DHT22;2428;48.732;9.148;2022-12-11T10:33:57;0.70;99.90
4828;DHT22;2428;48.732;9.148;2022-12-11T10:36:36;0.80;99.90
4828;DHT22;2428;48.732;9.148;2022-12-11T10:39:03;0.90;99.90
4828;DHT22;2428;48.732;9.148;2022-12-11T10:41:41;1.00;99.90
4828;DHT22;2428;48.732;9.148;2022-12-11T10:44:28;1.00;99.90
4828;DHT22;2428;48.732;9.148;2022-12-11T10:49:31;1.10;99.90
4828;DHT22;2428;48.732;9.148;2022-12-11T10:51:58;1.00;99.90
4828;DHT22;2428;48.732;9.148;2022-12-11T10:54:32;0.90;99.90
4828;DHT22;2428;48.732;9.148;2022-12-11T10:57:01;0.90;99.90
4828;DHT22;2428;48.732;9.148;2022-12-11T10:59:44;0.90;99.90
4828;DHT22;2428;48.732;9.148;2022-12-11T11:04:56;1.00;99.90
4828;DHT22;2428;48.732;9.148;2022-12-11T11:07:27;1.10;99.90
4828;DHT22;2428;48.732;9.148;2022-12-11T11:12:48;1.10;99.90
4828;DHT22;2428;48.732;9.148;2022-12-11T11:15:24;1.10;99.90
4828;DHT22;2428;48.732;9.148;2022-12-11T11:17:53;1.10;99.90
4828;DHT22;2428;48.732;9.148;2022-12-11T11:20:25;1.10;99.90
4828;DHT22;2428;48.732;9.148;2022-12-11T11:23:07;1.10;99.90
4828;DHT22;2428;48.732;9.148;2022-12-11T11:25:35;1.10;99.90
4828;DHT22;2428;48.732;9.148;2022-12-11T11:28:06;1.10;99.90
4828;DHT22;2428;48.732;9.148;2022-12-11T11:30:38;1.10;99.90
4828;DHT22;2428;48.732;9.148;2022-12-11T11:33:14;1.10;99.90
4828;DHT22;2428;48.732;9.148;2022-12-11T11:35:51;1.10;99.90
4828;DHT22;2428;48.732;9.148;2022-12-11T11:38:20;1.20;99.90
4828;DHT22;2428;48.732;9.148;2022-12-11T11:48:59;1.30;99.90
4828;DHT22;2428;48.732;9.148;2022-12-11T11:51:38;1.30;99.90
4828;DHT22;2428;48.732;9.148;2022-12-11T11:56:45;1.40;99.90
4828;DHT22;2428;48.732;9.148;2022-12-11T11:59:22;1.40;99.90
4828;DHT22;2428;48.732;9.148;2022-12-11T12:01:51;1.40;99.90
4828;DHT22;2428;48.732;9.148;2022-12-11T12:04:18;1.50;99.90
4828;DHT22;2428;48.732;9.148;2022-12-11T12:09:45;1.50;99.90
4828;DHT22;2428;48.732;9.148;2022-12-11T12:15:17;1.40;99.90
4828;DHT22;2428;48.732;9.148;2022-12-11T12:17:57;1.40;99.90
4828;DHT22;2428;48.732;9.148;2022-12-11T12:20:28;1.40;99.90
4828;DHT22;2428;48.732;9.148;2022-12-11T12:23:02;1.40;99.90
4828;DHT22;2428;48.732;9.148;2022-12-11T12:25:39;1.50;99.90
4828;DHT22;2428;48.732;9.148;2022-12-11T12:33:30;1.70;99.90
4828;DHT22;2428;48.732;9.148;2022-12-11T12:36:22;1.70;99.90
4828;DHT22;2428;48.732;9.148;2022-12-11T12:39:02;1.70;99.90
4828;DHT22;2428;48.732;9.148;2022-12-11T12:44:17;1.80;99.90
4828;DHT22;2428;48.732;9.148;2022-12-11T12:46:58;1.80;99.90
4828;DHT22;2428;48.732;9.148;2022-12-11T12:52:04;1.80;99.90
4828;DHT22;2428;48.732;9.148;2022-12-11T12:54:32;1.80;99.90
4828;DHT22;2428;48.732;9.148;2022-12-11T12:57:00;1.70;99.90
4828;DHT22;2428;48.732;9.148;2022-12-11T12:59:27;1.60;99.90
4828;DHT22;2428;48.732;9.148;2022-12-11T13:01:58;1.60;99.90
4828;DHT22;2428;48.732;9.148;2022-12-11T13:07:15;1.50;99.90
4828;DHT22;2428;48.732;9.148;2022-12-11T13:09:41;1.50;99.90
4828;DHT22;2428;48.732;9.148;2022-12-11T13:12:14;1.40;99.90
4828;DHT22;2428;48.732;9.148;2022-12-11T13:14:40;1.40;99.90
4828;DHT22;2428;48.732;9.148;2022-12-11T13:17:23;1.40;99.90
4828;DHT22;2428;48.732;9.148;2022-12-11T13:20:08;1.40;99.90
4828;DHT22;2428;48.732;9.148;2022-12-11T13:22:50;1.50;99.90
4828;DHT22;2428;48.732;9.148;2022-12-11T13:25:53;1.50;99.90
4828;DHT22;2428;48.732;9.148;2022-12-11T13:33:42;1.40;99.90
4828;DHT22;2428;48.732;9.148;2022-12-11T13:38:35;1.50;99.90
4828;DHT22;2428;48.732;9.148;2022-12-11T13:41:03;1.50;99.90
4828;DHT22;2428;48.732;9.148;2022-12-11T13:43:34;1.50;99.90
4828;DHT22;2428;48.732;9.148;2022-12-11T13:46:05;1.50;99.90
4828;DHT22;2428;48.732;9.148;2022-12-11T13:48:38;1.60;99.90
4828;DHT22;2428;48.732;9.148;2022-12-11T13:51:18;1.60;99.90
4828;DHT22;2428;48.732;9.148;2022-12-11T13:53:44;1.50;99.90
4828;DHT22;2428;48.732;9.148;2022-12-11T13:56:18;1.50;99.90
4828;DHT22;2428;48.732;9.148;2022-12-11T13:58:44;1.40;99.90
4828;DHT22;2428;48.732;9.148;2022-12-11T14:01:13;1.40;99.90
4828;DHT22;2428;48.732;9.148;2022-12-11T14:04:02;1.40;99.90
4828;DHT22;2428;48.732;9.148;2022-12-11T14:06:29;1.40;99.90
4828;DHT22;2428;48.732;9.148;2022-12-11T14:08:57;1.30;99.90
4828;DHT22;2428;48.732;9.148;2022-12-11T14:11:35;1.20;99.90
4828;DHT22;2428;48.732;9.148;2022-12-11T14:14:04;1.10;99.90
4828;DHT22;2428;48.732;9.148;2022-12-11T14:16:31;1.10;99.90
4828;DHT22;2428;48.732;9.148;2022-12-11T14:19:02;1.10;99.90
4828;DHT22;2428;48.732;9.148;2022-12-11T14:21:29;1.10;99.90
4828;DHT22;2428;48.732;9.148;2022-12-11T14:24:01;1.00;99.90
4828;DHT22;2428;48.732;9.148;2022-12-11T14:26:35;1.00;99.90
4828;DHT22;2428;48.732;9.148;2022-12-11T14:29:04;1.00;99.90
4828;DHT22;2428;48.732;9.148;2022-12-11T14:31:37;1.00;99.90
4828;DHT22;2428;48.732;9.148;2022-12-11T14:34:25;1.00;99.90
4828;DHT22;2428;48.732;9.148;2022-12-11T14:36:53;1.00;99.90
4828;DHT22;2428;48.732;9.148;2022-12-11T14:39:32;1.00;99.90
4828;DHT22;2428;48.732;9.148;2022-12-11T14:44:35;0.90;99.90
4828;DHT22;2428;48.732;9.148;2022-12-11T14:47:05;0.90;99.90
4828;DHT22;2428;48.732;9.148;2022-12-11T14:52:25;0.90;99.90
4828;DHT22;2428;48.732;9.148;2022-12-11T14:57:33;0.80;99.90
4828;DHT22;2428;48.732;9.148;2022-12-11T15:00:00;0.80;99.90
4828;DHT22;2428;48.732;9.148;2022-12-11T15:07:40;0.60;99.90
4828;DHT22;2428;48.732;9.148;2022-12-11T15:10:05;0.60;99.90
4828;DHT22;2428;48.732;9.148;2022-12-11T15:12:31;0.50;99.90
4828;DHT22;2428;48.732;9.148;2022-12-11T15:15:03;0.50;99.90
4828;DHT22;2428;48.732;9.148;2022-12-11T15:17:29;0.50;99.90
4828;DHT22;2428;48.732;9.148;2022-12-11T15:20:07;0.50;99.90
4828;DHT22;2428;48.732;9.148;2022-12-11T15:22:33;0.50;99.90
4828;DHT22;2428;48.732;9.148;2022-12-11T15:24:59;0.40;99.90
4828;DHT22;2428;48.732;9.148;2022-12-11T15:27:38;0.40;99.90
4828;DHT22;2428;48.732;9.148;2022-12-11T15:33:01;0.40;99.90
4828;DHT22;2428;48.732;9.148;2022-12-11T15:35:27;0.40;99.90
4828;DHT22;2428;48.732;9.148;2022-12-11T15:37:54;0.30;99.90
4828;DHT22;2428;48.732;9.148;2022-12-11T15:40:21;0.20;99.90
4828;DHT22;2428;48.732;9.148;2022-12-11T15:42:47;0.20;99.90
4828;DHT22;2428;48.732;9.148;2022-12-11T15:45:21;0.20;99.90
4828;DHT22;2428;48.732;9.148;2022-12-11T15:47:49;0.10;99.90
4828;DHT22;2428;48.732;9.148;2022-12-11T15:50:23;0.10;99.90
4828;DHT22;2428;48.732;9.148;2022-12-11T15:52:51;0.10;99.90
4828;DHT22;2428;48.732;9.148;2022-12-11T15:55:18;0.10;99.90
4828;DHT22;2428;48.732;9.148;2022-12-11T15:57:53;0.00;99.90
4828;DHT22;2428;48.732;9.148;2022-12-11T16:00:20;0.00;99.90
4828;DHT22;2428;48.732;9.148;2022-12-11T16:02:46;0.10;99.90
4828;DHT22;2428;48.732;9.148;2022-12-11T16:05:12;0.10;99.90
4828;DHT22;2428;48.732;9.148;2022-12-11T16:07:38;0.10;99.90
4828;DHT22;2428;48.732;9.148;2022-12-11T16:10:05;0.10;99.90
4828;DHT22;2428;48.732;9.148;2022-12-11T16:12:32;0.10;99.90
4828;DHT22;2428;48.732;9.148;2022-12-11T16:14:57;0.10;99.90
4828;DHT22;2428;48.732;9.148;2022-12-11T16:17:23;0.10;99.90
4828;DHT22;2428;48.732;9.148;2022-12-11T16:19:48;0.00;99.90
4828;DHT22;2428;48.732;9.148;2022-12-11T16:22:14;0.00;99.90
4828;DHT22;2428;48.732;9.148;2022-12-11T16:24:41;0.00;99.90
4828;DHT22;2428;48.732;9.148;2022-12-11T16:27:07;0.00;99.90
4828;DHT22;2428;48.732;9.148;2022-12-11T16:29:38;0.10;99.90
4828;DHT22;2428;48.732;9.148;2022-12-11T16:32:05;0.10;99.90
4828;DHT22;2428;48.732;9.148;2022-12-11T16:34:35;0.20;99.90
4828;DHT22;2428;48.732;9.148;2022-12-11T16:37:01;0.10;99.90
4828;DHT22;2428;48.732;9.148;2022-12-11T16:39:27;0.20;99.90
4828;DHT22;2428;48.732;9.148;2022-12-11T16:41:53;0.10;99.90
4828;DHT22;2428;48.732;9.148;2022-12-11T16:44:20;0.10;99.90
4828;DHT22;2428;48.732;9.148;2022-12-11T16:46:46;0.10;99.90
4828;DHT22;2428;48.732;9.148;2022-12-11T16:49:12;0.10;99.90
4828;DHT22;2428;48.732;9.148;2022-12-11T16:51:38;0.10;99.90
4828;DHT22;2428;48.732;9.148;2022-12-11T16:54:03;0.10;99.90
4828;DHT22;2428;48.732;9.148;2022-12-11T16:56:29;0.10;99.90
4828;DHT22;2428;48.732;9.148;2022-12-11T16:58:55;0.10;99.90
4828;DHT22;2428;48.732;9.148;2022-12-11T17:01:21;0.10;99.90
4828;DHT22;2428;48.732;9.148;2022-12-11T17:03:46;0.10;99.90
4828;DHT22;2428;48.732;9.148;2022-12-11T17:06:14;0.10;99.90
4828;DHT22;2428;48.732;9.148;2022-12-11T17:08:40;0.10;99.90
4828;DHT22;2428;48.732;9.148;2022-12-11T17:11:08;0.00;99.90
4828;DHT22;2428;48.732;9.148;2022-12-11T17:13:34;0.00;99.90
4828;DHT22;2428;48.732;9.148;2022-12-11T17:16:08;0.10;99.90
4828;DHT22;2428;48.732;9.148;2022-12-11T17:18:34;0.10;99.90
4828;DHT22;2428;48.732;9.148;2022-12-11T17:21:05;0.10;99.90
4828;DHT22;2428;48.732;9.148;2022-12-11T17:23:31;0.10;99.90
4828;DHT22;2428;48.732;9.148;2022-12-11T17:25:57;0.10;99.90
4828;DHT22;2428;48.732;9.148;2022-12-11T17:28:23;0.00;99.90
4828;DHT22;2428;48.732;9.148;2022-12-11T17:30:48;0.10;99.90
4828;DHT22;2428;48.732;9.148;2022-12-11T17:33:14;0.10;99.90
4828;DHT22;2428;48.732;9.148;2022-12-11T17:35:40;0.10;99.90
4828;DHT22;2428;48.732;9.148;2022-12-11T17:38:06;0.10;99.90
4828;DHT22;2428;48.732;9.148;2022-12-11T17:40:31;0.10;99.90
4828;DHT22;2428;48.732;9.148;2022-12-11T17:42:57;0.10;99.90
4828;DHT22;2428;48.732;9.148;2022-12-11T17:45:23;0.10;99.90
4828;DHT22;2428;48.732;9.148;2022-12-11T17:47:48;0.10;99.90
4828;DHT22;2428;48.732;9.148;2022-12-11T17:50:14;0.10;99.90
4828;DHT22;2428;48.732;9.148;2022-12-11T17:52:40;0.00;99.90
4828;DHT22;2428;48.732;9.148;2022-12-11T17:55:06;0.00;99.90
4828;DHT22;2428;48.732;9.148;2022-12-11T17:57:32;0.00;99.90
4828;DHT22;2428;48.732;9.148;2022-12-11T17:59:57;0.00;99.90
4828;DHT22;2428;48.732;9.148;2022-12-11T18:02:23;-0.10;99.90
4828;DHT22;2428;48.732;9.148;2022-12-11T18:04:49;-0.10;99.90
4828;DHT22;2428;48.732;9.148;2022-12-11T18:07:15;-0.20;99.90
4828;DHT22;2428;48.732;9.148;2022-12-11T18:09:40;-0.20;99.90